sensor_id;sensor_type;location;lat;lon;timestamp;pressure;altitude;pressure_sealevel;temperature;humidity
70254;BME280;57649;42.968;1.608;2023-03-31T00:01:30;97073.88;;;11.66;89.71
70254;BME280;57649;42.968;1.608;2023-03-31T00:03:59;97080.34;;;11.72;89.64
70254;BME280;57649;42.968;1.608;2023-03-31T00:06:31;97072.31;;;11.72;89.77
70254;BME280;57649;42.968;1.608;2023-03-31T00:09:10;97081.84;;;11.74;89.69
70254;BME280;57649;42.968;1.608;2023-03-31T00:11:36;97069.84;;;11.70;89.32
70254;BME280;57649;42.968;1.608;2023-03-31T00:14:02;97080.25;;;11.65;89.72
70254;BME280;57649;42.968;1.608;2023-03-31T00:16:32;97087.09;;;11.68;89.80
70254;BME280;57649;42.968;1.608;2023-03-31T00:18:57;97084.59;;;11.66;90.28
70254;BME280;57649;42.968;1.608;2023-03-31T00:21:23;97080.91;;;11.67;89.96
70254;BME280;57649;42.968;1.608;2023-03-31T00:23:53;97086.09;;;11.69;89.91
70254;BME280;57649;42.968;1.608;2023-03-31T00:26:19;97077.88;;;11.70;90.16
70254;BME280;57649;42.968;1.608;2023-03-31T00:28:46;97088.97;;;11.67;90.83
70254;BME280;57649;42.968;1.608;2023-03-31T00:31:11;97077.81;;;11.55;91.56
70254;BME280;57649;42.968;1.608;2023-03-31T00:33:37;97092.91;;;11.56;91.25
70254;BME280;57649;42.968;1.608;2023-03-31T00:36:02;97108.44;;;11.61;91.41
70254;BME280;57649;42.968;1.608;2023-03-31T00:38:31;97107.78;;;11.59;91.25
70254;BME280;57649;42.968;1.608;2023-03-31T00:40:58;97103.25;;;11.45;90.89
70254;BME280;57649;42.968;1.608;2023-03-31T00:43:32;97109.63;;;11.44;91.23
70254;BME280;57649;42.968;1.608;2023-03-31T00:46:16;97109.97;;;11.41;91.24
70254;BME280;57649;42.968;1.608;2023-03-31T00:48:50;97096.94;;;11.38;91.61
70254;BME280;57649;42.968;1.608;2023-03-31T00:51:17;97102.56;;;11.43;91.52
70254;BME280;57649;42.968;1.608;2023-03-31T00:53:47;97100.13;;;11.56;90.86
70254;BME280;57649;42.968;1.608;2023-03-31T00:56:19;97099.84;;;11.51;91.40
70254;BME280;57649;42.968;1.608;2023-03-31T00:58:45;97090.84;;;11.44;91.39
70254;BME280;57649;42.968;1.608;2023-03-31T01:01:18;97081.50;;;11.40;91.54
70254;BME280;57649;42.968;1.608;2023-03-31T01:03:45;97083.47;;;11.46;90.77
70254;BME280;57649;42.968;1.608;2023-03-31T01:06:13;97074.41;;;11.47;90.73
70254;BME280;57649;42.968;1.608;2023-03-31T01:08:42;97079.31;;;11.43;91.73
70254;BME280;57649;42.968;1.608;2023-03-31T01:11:11;97072.25;;;11.42;92.03
70254;BME280;57649;42.968;1.608;2023-03-31T01:13:38;97068.09;;;11.40;91.82
70254;BME280;57649;42.968;1.608;2023-03-31T01:16:04;97070.06;;;11.46;91.39
70254;BME280;57649;42.968;1.608;2023-03-31T01:18:30;97065.03;;;11.43;91.83
70254;BME280;57649;42.968;1.608;2023-03-31T01:32:20;97054.06;;;11.38;93.15
70254;BME280;57649;42.968;1.608;2023-03-31T01:40:58;97049.06;;;11.34;93.48
70254;BME280;57649;42.968;1.608;2023-03-31T01:46:51;97044.75;;;11.10;93.86
70254;BME280;57649;42.968;1.608;2023-03-31T01:52:20;97056.72;;;11.00;93.86
70254;BME280;57649;42.968;1.608;2023-03-31T01:54:53;97055.41;;;10.95;94.09
70254;BME280;57649;42.968;1.608;2023-03-31T01:57:39;97054.75;;;10.93;93.97
70254;BME280;57649;42.968;1.608;2023-03-31T02:00:10;97067.69;;;10.90;94.30
70254;BME280;57649;42.968;1.608;2023-03-31T02:02:39;97075.00;;;10.96;95.67
70254;BME280;57649;42.968;1.608;2023-03-31T02:05:14;97074.91;;;11.04;94.51
70254;BME280;57649;42.968;1.608;2023-03-31T02:07:48;97071.72;;;11.09;94.11
70254;BME280;57649;42.968;1.608;2023-03-31T02:10:15;97068.44;;;10.98;93.99
70254;BME280;57649;42.968;1.608;2023-03-31T02:12:42;97055.47;;;10.87;94.51
70254;BME280;57649;42.968;1.608;2023-03-31T02:15:13;97059.88;;;10.80;94.95
70254;BME280;57649;42.968;1.608;2023-03-31T02:17:44;97057.56;;;10.77;95.14
70254;BME280;57649;42.968;1.608;2023-03-31T02:20:13;97045.66;;;10.79;94.86
70254;BME280;57649;42.968;1.608;2023-03-31T02:22:42;97052.84;;;10.79;94.89
70254;BME280;57649;42.968;1.608;2023-03-31T02:25:12;97045.53;;;10.73;94.75
70254;BME280;57649;42.968;1.608;2023-03-31T02:27:42;97047.19;;;10.74;95.29
70254;BME280;57649;42.968;1.608;2023-03-31T02:30:09;97055.56;;;10.71;95.20
70254;BME280;57649;42.968;1.608;2023-03-31T02:32:38;97069.19;;;10.84;95.45
70254;BME280;57649;42.968;1.608;2023-03-31T02:35:05;97071.78;;;10.77;96.72
70254;BME280;57649;42.968;1.608;2023-03-31T02:37:32;97060.88;;;10.79;96.73
70254;BME280;57649;42.968;1.608;2023-03-31T02:40:02;97069.97;;;10.93;95.66
70254;BME280;57649;42.968;1.608;2023-03-31T02:42:29;97076.06;;;10.87;96.34
70254;BME280;57649;42.968;1.608;2023-03-31T02:45:01;97084.25;;;10.85;95.07
70254;BME280;57649;42.968;1.608;2023-03-31T02:47:27;97084.13;;;10.78;95.64
70254;BME280;57649;42.968;1.608;2023-03-31T02:49:55;97085.34;;;10.76;96.37
70254;BME280;57649;42.968;1.608;2023-03-31T02:55:47;97098.41;;;10.71;95.63
70254;BME280;57649;42.968;1.608;2023-03-31T02:58:35;97101.75;;;10.73;95.67
70254;BME280;57649;42.968;1.608;2023-03-31T03:06:54;97099.69;;;10.83;94.89
70254;BME280;57649;42.968;1.608;2023-03-31T03:17:26;97125.25;;;10.63;96.17
70254;BME280;57649;42.968;1.608;2023-03-31T03:19:54;97135.56;;;10.66;95.57
70254;BME280;57649;42.968;1.608;2023-03-31T03:22:20;97134.25;;;10.70;95.95
70254;BME280;57649;42.968;1.608;2023-03-31T03:24:46;97140.59;;;10.69;95.93
70254;BME280;57649;42.968;1.608;2023-03-31T03:27:12;97134.59;;;10.67;95.54
70254;BME280;57649;42.968;1.608;2023-03-31T03:29:37;97130.78;;;10.53;94.49
70254;BME280;57649;42.968;1.608;2023-03-31T03:32:02;97135.69;;;10.41;95.41
70254;BME280;57649;42.968;1.608;2023-03-31T03:34:28;97122.81;;;10.45;95.51
70254;BME280;57649;42.968;1.608;2023-03-31T03:36:53;97136.03;;;10.46;94.80
70254;BME280;57649;42.968;1.608;2023-03-31T03:39:19;97144.00;;;10.54;95.52
70254;BME280;57649;42.968;1.608;2023-03-31T03:41:44;97162.91;;;10.53;95.00
70254;BME280;57649;42.968;1.608;2023-03-31T03:44:10;97144.72;;;10.48;95.33
70254;BME280;57649;42.968;1.608;2023-03-31T03:46:36;97159.25;;;10.46;96.61
70254;BME280;57649;42.968;1.608;2023-03-31T03:49:01;97170.09;;;10.52;96.86
70254;BME280;57649;42.968;1.608;2023-03-31T03:51:27;97181.31;;;10.56;96.13
70254;BME280;57649;42.968;1.608;2023-03-31T03:53:52;97174.81;;;10.42;96.27
70254;BME280;57649;42.968;1.608;2023-03-31T03:56:17;97175.47;;;10.52;96.70
70254;BME280;57649;42.968;1.608;2023-03-31T03:58:43;97176.00;;;10.48;97.12
70254;BME280;57649;42.968;1.608;2023-03-31T04:01:08;97188.84;;;10.52;97.04
70254;BME280;57649;42.968;1.608;2023-03-31T04:03:34;97190.53;;;10.53;96.83
70254;BME280;57649;42.968;1.608;2023-03-31T04:05:59;97184.47;;;10.59;97.05
70254;BME280;57649;42.968;1.608;2023-03-31T04:08:25;97177.44;;;10.58;96.48
70254;BME280;57649;42.968;1.608;2023-03-31T04:10:50;97174.09;;;10.56;97.12
70254;BME280;57649;42.968;1.608;2023-03-31T04:13:17;97166.25;;;10.55;97.52
70254;BME280;57649;42.968;1.608;2023-03-31T04:15:42;97172.13;;;10.50;97.19
70254;BME280;57649;42.968;1.608;2023-03-31T04:18:08;97173.94;;;10.58;96.79
70254;BME280;57649;42.968;1.608;2023-03-31T04:20:56;97177.09;;;10.62;96.36
70254;BME280;57649;42.968;1.608;2023-03-31T04:23:35;97188.13;;;10.58;96.92
70254;BME280;57649;42.968;1.608;2023-03-31T04:26:11;97182.44;;;10.62;97.75
70254;BME280;57649;42.968;1.608;2023-03-31T04:28:37;97184.50;;;10.51;97.22
70254;BME280;57649;42.968;1.608;2023-03-31T04:31:08;97183.97;;;10.56;97.93
70254;BME280;57649;42.968;1.608;2023-03-31T04:33:34;97187.84;;;10.53;97.97
70254;BME280;57649;42.968;1.608;2023-03-31T04:36:04;97187.53;;;10.48;97.34
70254;BME280;57649;42.968;1.608;2023-03-31T04:38:32;97203.25;;;10.51;97.27
70254;BME280;57649;42.968;1.608;2023-03-31T04:41:00;97194.91;;;10.38;97.95
70254;BME280;57649;42.968;1.608;2023-03-31T04:43:25;97189.56;;;10.38;97.80
70254;BME280;57649;42.968;1.608;2023-03-31T04:45:50;97192.59;;;10.35;98.14
70254;BME280;57649;42.968;1.608;2023-03-31T04:48:16;97193.06;;;10.38;97.33
70254;BME280;57649;42.968;1.608;2023-03-31T04:50:41;97187.03;;;10.45;97.77
70254;BME280;57649;42.968;1.608;2023-03-31T04:53:07;97200.91;;;10.40;98.06
70254;BME280;57649;42.968;1.608;2023-03-31T04:55:32;97197.25;;;10.41;98.40
70254;BME280;57649;42.968;1.608;2023-03-31T04:57:58;97212.47;;;10.40;97.83
70254;BME280;57649;42.968;1.608;2023-03-31T05:00:24;97205.28;;;10.41;97.50
70254;BME280;57649;42.968;1.608;2023-03-31T05:02:51;97214.97;;;10.26;98.93
70254;BME280;57649;42.968;1.608;2023-03-31T05:05:16;97215.16;;;10.32;98.63
70254;BME280;57649;42.968;1.608;2023-03-31T05:07:42;97221.34;;;10.33;98.30
70254;BME280;57649;42.968;1.608;2023-03-31T05:10:08;97222.19;;;10.33;97.55
70254;BME280;57649;42.968;1.608;2023-03-31T05:12:34;97218.34;;;10.28;97.41
70254;BME280;57649;42.968;1.608;2023-03-31T05:15:00;97228.22;;;10.19;98.21
70254;BME280;57649;42.968;1.608;2023-03-31T05:17:26;97225.88;;;10.16;99.26
70254;BME280;57649;42.968;1.608;2023-03-31T05:19:52;97239.59;;;10.05;99.75
70254;BME280;57649;42.968;1.608;2023-03-31T05:22:18;97235.75;;;9.99;100.00
70254;BME280;57649;42.968;1.608;2023-03-31T05:24:45;97244.44;;;10.01;100.00
70254;BME280;57649;42.968;1.608;2023-03-31T05:27:11;97239.59;;;10.05;100.00
70254;BME280;57649;42.968;1.608;2023-03-31T05:29:36;97248.94;;;10.17;100.00
70254;BME280;57649;42.968;1.608;2023-03-31T05:32:01;97252.63;;;10.32;99.62
70254;BME280;57649;42.968;1.608;2023-03-31T05:34:27;97251.78;;;10.32;99.33
70254;BME280;57649;42.968;1.608;2023-03-31T05:36:52;97258.13;;;10.39;98.91
70254;BME280;57649;42.968;1.608;2023-03-31T05:39:18;97257.78;;;10.50;98.82
70254;BME280;57649;42.968;1.608;2023-03-31T05:41:44;97259.91;;;10.55;98.53
70254;BME280;57649;42.968;1.608;2023-03-31T05:44:09;97269.97;;;10.53;98.18
70254;BME280;57649;42.968;1.608;2023-03-31T05:46:35;97273.75;;;10.75;97.02
70254;BME280;57649;42.968;1.608;2023-03-31T05:49:00;97285.81;;;10.79;96.14
70254;BME280;57649;42.968;1.608;2023-03-31T05:51:27;97281.63;;;10.76;95.25
70254;BME280;57649;42.968;1.608;2023-03-31T05:53:52;97291.50;;;10.76;96.06
70254;BME280;57649;42.968;1.608;2023-03-31T05:56:17;97292.38;;;10.68;95.19
70254;BME280;57649;42.968;1.608;2023-03-31T05:58:43;97299.31;;;10.86;95.88
70254;BME280;57649;42.968;1.608;2023-03-31T06:01:10;97303.03;;;10.85;95.03
70254;BME280;57649;42.968;1.608;2023-03-31T06:03:38;97310.75;;;10.71;95.08
70254;BME280;57649;42.968;1.608;2023-03-31T06:06:05;97304.56;;;10.71;95.73
70254;BME280;57649;42.968;1.608;2023-03-31T06:08:33;97305.53;;;10.78;95.84
70254;BME280;57649;42.968;1.608;2023-03-31T06:10:59;97302.94;;;11.09;94.61
70254;BME280;57649;42.968;1.608;2023-03-31T06:13:24;97303.63;;;11.03;94.55
70254;BME280;57649;42.968;1.608;2023-03-31T06:15:58;97308.63;;;11.06;94.36
70254;BME280;57649;42.968;1.608;2023-03-31T06:18:27;97309.16;;;11.02;95.21
70254;BME280;57649;42.968;1.608;2023-03-31T06:20:53;97306.09;;;11.13;95.07
70254;BME280;57649;42.968;1.608;2023-03-31T06:23:18;97308.94;;;11.11;95.36
70254;BME280;57649;42.968;1.608;2023-03-31T06:25:44;97308.38;;;11.24;95.56
70254;BME280;57649;42.968;1.608;2023-03-31T06:28:10;97310.41;;;11.22;95.41
70254;BME280;57649;42.968;1.608;2023-03-31T06:30:35;97307.91;;;11.21;95.51
70254;BME280;57649;42.968;1.608;2023-03-31T06:33:00;97312.75;;;11.25;95.51
70254;BME280;57649;42.968;1.608;2023-03-31T06:35:26;97307.53;;;11.32;95.23
70254;BME280;57649;42.968;1.608;2023-03-31T06:37:51;97317.75;;;11.28;95.59
70254;BME280;57649;42.968;1.608;2023-03-31T06:40:17;97308.38;;;11.24;94.22
70254;BME280;57649;42.968;1.608;2023-03-31T06:42:42;97304.94;;;11.15;93.92
70254;BME280;57649;42.968;1.608;2023-03-31T06:45:08;97314.41;;;11.26;94.08
70254;BME280;57649;42.968;1.608;2023-03-31T06:47:34;97320.72;;;11.42;94.44
70254;BME280;57649;42.968;1.608;2023-03-31T06:49:59;97316.97;;;11.51;93.08
70254;BME280;57649;42.968;1.608;2023-03-31T06:52:24;97327.53;;;11.75;93.57
70254;BME280;57649;42.968;1.608;2023-03-31T06:54:50;97320.44;;;11.83;93.41
70254;BME280;57649;42.968;1.608;2023-03-31T06:57:15;97322.13;;;11.84;93.37
70254;BME280;57649;42.968;1.608;2023-03-31T06:59:41;97329.09;;;11.70;93.42
70254;BME280;57649;42.968;1.608;2023-03-31T07:02:06;97328.09;;;11.71;92.80
70254;BME280;57649;42.968;1.608;2023-03-31T07:04:31;97307.28;;;11.73;93.97
70254;BME280;57649;42.968;1.608;2023-03-31T07:06:58;97314.84;;;12.01;92.48
70254;BME280;57649;42.968;1.608;2023-03-31T07:09:23;97311.19;;;11.93;92.08
70254;BME280;57649;42.968;1.608;2023-03-31T07:11:49;97323.13;;;11.91;92.93
70254;BME280;57649;42.968;1.608;2023-03-31T07:14:14;97315.47;;;12.03;91.55
70254;BME280;57649;42.968;1.608;2023-03-31T07:16:40;97321.31;;;12.29;90.35
70254;BME280;57649;42.968;1.608;2023-03-31T07:19:06;97317.16;;;12.42;88.97
70254;BME280;57649;42.968;1.608;2023-03-31T07:21:32;97323.13;;;12.67;87.99
70254;BME280;57649;42.968;1.608;2023-03-31T07:23:57;97325.09;;;12.73;87.62
70254;BME280;57649;42.968;1.608;2023-03-31T07:26:23;97327.78;;;12.73;88.53
70254;BME280;57649;42.968;1.608;2023-03-31T07:28:49;97315.66;;;12.62;89.10
70254;BME280;57649;42.968;1.608;2023-03-31T07:31:14;97326.91;;;12.58;89.75
70254;BME280;57649;42.968;1.608;2023-03-31T07:33:40;97338.41;;;12.51;90.51
70254;BME280;57649;42.968;1.608;2023-03-31T07:36:06;97337.97;;;12.63;89.58
70254;BME280;57649;42.968;1.608;2023-03-31T07:38:32;97341.78;;;12.83;89.76
70254;BME280;57649;42.968;1.608;2023-03-31T07:40:58;97341.59;;;12.85;89.23
70254;BME280;57649;42.968;1.608;2023-03-31T07:43:24;97341.47;;;12.78;90.33
70254;BME280;57649;42.968;1.608;2023-03-31T07:45:50;97343.53;;;12.76;89.94
70254;BME280;57649;42.968;1.608;2023-03-31T07:48:15;97352.03;;;12.65;90.21
70254;BME280;57649;42.968;1.608;2023-03-31T07:50:41;97358.63;;;12.77;89.18
70254;BME280;57649;42.968;1.608;2023-03-31T07:53:07;97366.34;;;12.95;88.96
70254;BME280;57649;42.968;1.608;2023-03-31T07:55:32;97353.75;;;12.96;88.34
70254;BME280;57649;42.968;1.608;2023-03-31T07:57:58;97364.19;;;12.90;89.41
70254;BME280;57649;42.968;1.608;2023-03-31T08:00:23;97371.16;;;12.85;90.91
70254;BME280;57649;42.968;1.608;2023-03-31T08:02:49;97365.94;;;12.83;92.78
70254;BME280;57649;42.968;1.608;2023-03-31T08:05:16;97375.03;;;12.82;93.91
70254;BME280;57649;42.968;1.608;2023-03-31T08:07:44;97380.88;;;12.86;94.54
70254;BME280;57649;42.968;1.608;2023-03-31T08:10:14;97380.41;;;12.82;96.17
70254;BME280;57649;42.968;1.608;2023-03-31T08:12:40;97385.09;;;12.65;98.45
70254;BME280;57649;42.968;1.608;2023-03-31T08:15:06;97383.31;;;12.58;99.34
70254;BME280;57649;42.968;1.608;2023-03-31T08:17:32;97380.81;;;12.56;99.21
70254;BME280;57649;42.968;1.608;2023-03-31T08:19:57;97366.84;;;12.61;100.00
70254;BME280;57649;42.968;1.608;2023-03-31T08:22:22;97364.81;;;12.63;100.00
70254;BME280;57649;42.968;1.608;2023-03-31T08:24:48;97355.84;;;12.70;100.00
70254;BME280;57649;42.968;1.608;2023-03-31T08:27:13;97368.16;;;12.80;99.84
70254;BME280;57649;42.968;1.608;2023-03-31T08:29:38;97372.72;;;12.94;99.47
70254;BME280;57649;42.968;1.608;2023-03-31T08:32:04;97363.19;;;13.21;100.00
70254;BME280;57649;42.968;1.608;2023-03-31T08:34:31;97352.94;;;13.40;100.00
70254;BME280;57649;42.968;1.608;2023-03-31T08:36:56;97360.41;;;13.59;100.00
70254;BME280;57649;42.968;1.608;2023-03-31T08:39:22;97354.13;;;13.89;97.32
70254;BME280;57649;42.968;1.608;2023-03-31T08:41:59;97362.28;;;14.17;92.19
70254;BME280;57649;42.968;1.608;2023-03-31T08:47:00;97368.28;;;13.97;88.85
70254;BME280;57649;42.968;1.608;2023-03-31T08:49:29;97356.97;;;14.02;89.55
70254;BME280;57649;42.968;1.608;2023-03-31T08:51:59;97361.72;;;14.00;88.39
70254;BME280;57649;42.968;1.608;2023-03-31T08:54:30;97369.59;;;14.01;89.44
70254;BME280;57649;42.968;1.608;2023-03-31T08:56:56;97373.66;;;13.97;87.98
70254;BME280;57649;42.968;1.608;2023-03-31T08:59:34;97377.72;;;14.08;88.43
70254;BME280;57649;42.968;1.608;2023-03-31T09:07:04;97359.59;;;14.38;88.27
70254;BME280;57649;42.968;1.608;2023-03-31T09:12:00;97355.16;;;14.52;88.30
70254;BME280;57649;42.968;1.608;2023-03-31T09:17:33;97337.28;;;14.23;87.10
70254;BME280;57649;42.968;1.608;2023-03-31T09:20:22;97356.91;;;14.38;87.31
70254;BME280;57649;42.968;1.608;2023-03-31T09:23:41;97361.13;;;14.26;86.39
70254;BME280;57649;42.968;1.608;2023-03-31T09:25:42;97356.44;;;14.13;86.67
70254;BME280;57649;42.968;1.608;2023-03-31T09:28:21;97344.78;;;14.28;86.11
70254;BME280;57649;42.968;1.608;2023-03-31T09:30:48;97344.78;;;14.06;86.17
70254;BME280;57649;42.968;1.608;2023-03-31T09:33:29;97344.53;;;14.22;85.41
70254;BME280;57649;42.968;1.608;2023-03-31T09:35:58;97354.53;;;14.29;84.91
70254;BME280;57649;42.968;1.608;2023-03-31T09:38:24;97350.75;;;14.23;85.82
70254;BME280;57649;42.968;1.608;2023-03-31T09:40:57;97353.56;;;14.15;86.54
70254;BME280;57649;42.968;1.608;2023-03-31T09:43:26;97362.00;;;13.90;88.07
70254;BME280;57649;42.968;1.608;2023-03-31T09:45:53;97363.13;;;13.81;90.47
70254;BME280;57649;42.968;1.608;2023-03-31T09:48:22;97351.91;;;13.77;91.17
70254;BME280;57649;42.968;1.608;2023-03-31T09:50:57;97348.66;;;13.82;91.55
70254;BME280;57649;42.968;1.608;2023-03-31T09:59:16;97365.19;;;13.79;90.70
70254;BME280;57649;42.968;1.608;2023-03-31T10:01:48;97359.44;;;13.82;90.65
70254;BME280;57649;42.968;1.608;2023-03-31T10:04:23;97357.88;;;13.73;91.41
70254;BME280;57649;42.968;1.608;2023-03-31T10:06:49;97356.41;;;13.70;90.47
70254;BME280;57649;42.968;1.608;2023-03-31T10:09:18;97350.00;;;13.71;91.38
70254;BME280;57649;42.968;1.608;2023-03-31T10:12:15;97350.41;;;13.53;92.74
70254;BME280;57649;42.968;1.608;2023-03-31T10:14:47;97348.06;;;13.65;92.21
70254;BME280;57649;42.968;1.608;2023-03-31T10:17:21;97348.72;;;13.67;92.18
70254;BME280;57649;42.968;1.608;2023-03-31T10:19:58;97343.25;;;13.60;91.93
70254;BME280;57649;42.968;1.608;2023-03-31T10:22:29;97343.88;;;13.62;91.53
70254;BME280;57649;42.968;1.608;2023-03-31T10:25:27;97351.91;;;13.41;92.46
70254;BME280;57649;42.968;1.608;2023-03-31T10:27:53;97352.56;;;13.43;93.07
70254;BME280;57649;42.968;1.608;2023-03-31T10:30:22;97345.41;;;13.50;92.82
70254;BME280;57649;42.968;1.608;2023-03-31T10:32:49;97343.44;;;13.59;92.91
70254;BME280;57649;42.968;1.608;2023-03-31T10:37:47;97342.22;;;13.61;91.75
70254;BME280;57649;42.968;1.608;2023-03-31T10:40:21;97337.81;;;13.54;91.90
70254;BME280;57649;42.968;1.608;2023-03-31T10:43:04;97353.84;;;13.47;92.59
70254;BME280;57649;42.968;1.608;2023-03-31T10:48:32;97339.47;;;13.40;93.21
70254;BME280;57649;42.968;1.608;2023-03-31T10:53:38;97320.06;;;13.29;93.27
70254;BME280;57649;42.968;1.608;2023-03-31T10:58:48;97337.06;;;13.15;98.35
70254;BME280;57649;42.968;1.608;2023-03-31T11:09:43;97344.09;;;13.01;93.26
70254;BME280;57649;42.968;1.608;2023-03-31T11:12:30;97348.28;;;13.19;91.90
70254;BME280;57649;42.968;1.608;2023-03-31T11:20:26;97343.91;;;13.18;91.38
70254;BME280;57649;42.968;1.608;2023-03-31T11:26:07;97338.19;;;13.06;93.40
70254;BME280;57649;42.968;1.608;2023-03-31T11:40:31;97339.78;;;12.47;96.87
70254;BME280;57649;42.968;1.608;2023-03-31T11:43:05;97341.31;;;12.42;97.32
70254;BME280;57649;42.968;1.608;2023-03-31T11:45:35;97335.31;;;12.40;98.10
70254;BME280;57649;42.968;1.608;2023-03-31T11:48:08;97333.97;;;12.21;97.73
70254;BME280;57649;42.968;1.608;2023-03-31T11:50:38;97336.91;;;12.11;98.38
70254;BME280;57649;42.968;1.608;2023-03-31T11:53:16;97324.19;;;12.05;99.51
70254;BME280;57649;42.968;1.608;2023-03-31T11:55:44;97324.56;;;12.02;100.00
70254;BME280;57649;42.968;1.608;2023-03-31T11:58:18;97317.38;;;11.94;100.00
70254;BME280;57649;42.968;1.608;2023-03-31T12:00:56;97316.38;;;11.87;100.00
70254;BME280;57649;42.968;1.608;2023-03-31T12:05:56;97313.84;;;11.70;100.00
70254;BME280;57649;42.968;1.608;2023-03-31T12:14:24;97322.25;;;11.67;100.00
70254;BME280;57649;42.968;1.608;2023-03-31T12:16:57;97325.44;;;11.63;100.00
70254;BME280;57649;42.968;1.608;2023-03-31T12:19:52;97346.03;;;11.70;100.00
70254;BME280;57649;42.968;1.608;2023-03-31T12:22:32;97345.97;;;11.79;100.00
70254;BME280;57649;42.968;1.608;2023-03-31T12:25:00;97343.13;;;11.80;100.00
70254;BME280;57649;42.968;1.608;2023-03-31T12:27:36;97344.00;;;12.04;100.00
70254;BME280;57649;42.968;1.608;2023-03-31T12:32:51;97330.44;;;11.97;100.00
70254;BME280;57649;42.968;1.608;2023-03-31T12:35:24;97322.28;;;12.13;100.00
70254;BME280;57649;42.968;1.608;2023-03-31T12:51:59;97323.03;;;11.76;100.00
70254;BME280;57649;42.968;1.608;2023-03-31T12:59:37;97312.31;;;11.76;100.00
70254;BME280;57649;42.968;1.608;2023-03-31T13:02:24;97311.75;;;11.81;100.00
70254;BME280;57649;42.968;1.608;2023-03-31T13:04:50;97309.72;;;11.83;100.00
70254;BME280;57649;42.968;1.608;2023-03-31T13:09:47;97308.28;;;11.72;100.00
70254;BME280;57649;42.968;1.608;2023-03-31T13:12:23;97309.72;;;11.83;100.00
70254;BME280;57649;42.968;1.608;2023-03-31T13:14:53;97308.34;;;11.95;100.00
70254;BME280;57649;42.968;1.608;2023-03-31T13:17:32;97307.59;;;12.01;100.00
70254;BME280;57649;42.968;1.608;2023-03-31T13:20:24;97320.31;;;12.07;97.49
70254;BME280;57649;42.968;1.608;2023-03-31T13:22:59;97299.09;;;11.98;96.47
70254;BME280;57649;42.968;1.608;2023-03-31T13:25:35;97313.69;;;11.95;96.88
70254;BME280;57649;42.968;1.608;2023-03-31T13:39:25;97307.47;;;12.18;94.96
70254;BME280;57649;42.968;1.608;2023-03-31T14:07:28;97302.66;;;12.13;93.38
70254;BME280;57649;42.968;1.608;2023-03-31T14:09:56;97305.53;;;12.11;93.80
70254;BME280;57649;42.968;1.608;2023-03-31T14:12:36;97312.13;;;12.24;94.15
70254;BME280;57649;42.968;1.608;2023-03-31T14:15:03;97295.88;;;12.25;92.31
70254;BME280;57649;42.968;1.608;2023-03-31T14:17:32;97303.34;;;12.30;90.94
70254;BME280;57649;42.968;1.608;2023-03-31T14:20:21;97307.34;;;12.34;91.19
70254;BME280;57649;42.968;1.608;2023-03-31T14:38:50;97290.03;;;12.22;87.49
70254;BME280;57649;42.968;1.608;2023-03-31T14:41:20;97293.34;;;12.24;88.22
70254;BME280;57649;42.968;1.608;2023-03-31T14:43:55;97287.19;;;12.00;88.15
70254;BME280;57649;42.968;1.608;2023-03-31T14:46:21;97295.97;;;11.86;90.34
70254;BME280;57649;42.968;1.608;2023-03-31T14:48:49;97301.31;;;11.86;91.68
70254;BME280;57649;42.968;1.608;2023-03-31T14:51:18;97301.16;;;11.87;92.72
70254;BME280;57649;42.968;1.608;2023-03-31T14:53:47;97302.41;;;11.77;92.17
70254;BME280;57649;42.968;1.608;2023-03-31T14:56:28;97297.69;;;11.79;93.86
70254;BME280;57649;42.968;1.608;2023-03-31T14:58:58;97294.50;;;11.52;92.56
70254;BME280;57649;42.968;1.608;2023-03-31T15:01:28;97301.78;;;11.43;94.70
70254;BME280;57649;42.968;1.608;2023-03-31T15:03:59;97291.78;;;11.60;99.38
70254;BME280;57649;42.968;1.608;2023-03-31T15:06:25;97286.75;;;11.34;96.46
70254;BME280;57649;42.968;1.608;2023-03-31T15:08:54;97284.66;;;11.44;97.44
70254;BME280;57649;42.968;1.608;2023-03-31T15:11:21;97298.25;;;11.43;96.50
70254;BME280;57649;42.968;1.608;2023-03-31T15:13:49;97291.66;;;11.53;98.82
70254;BME280;57649;42.968;1.608;2023-03-31T15:21:40;97306.94;;;11.76;95.25
70254;BME280;57649;42.968;1.608;2023-03-31T15:24:06;97304.78;;;11.71;92.18
70254;BME280;57649;42.968;1.608;2023-03-31T15:26:38;97306.56;;;11.79;93.91
70254;BME280;57649;42.968;1.608;2023-03-31T15:31:36;97309.72;;;11.83;89.00
70254;BME280;57649;42.968;1.608;2023-03-31T15:34:21;97311.75;;;11.81;87.89
70254;BME280;57649;42.968;1.608;2023-03-31T15:36:48;97314.25;;;11.82;88.46
70254;BME280;57649;42.968;1.608;2023-03-31T15:39:14;97319.25;;;11.93;88.12
70254;BME280;57649;42.968;1.608;2023-03-31T15:41:40;97330.19;;;11.84;88.23
70254;BME280;57649;42.968;1.608;2023-03-31T15:49:30;97324.56;;;12.02;85.98
70254;BME280;57649;42.968;1.608;2023-03-31T15:51:56;97332.78;;;12.00;85.33
70254;BME280;57649;42.968;1.608;2023-03-31T15:54:39;97328.53;;;12.06;83.67
70254;BME280;57649;42.968;1.608;2023-03-31T15:57:07;97324.47;;;12.10;85.47
70254;BME280;57649;42.968;1.608;2023-03-31T15:59:49;97334.25;;;12.26;84.86
70254;BME280;57649;42.968;1.608;2023-03-31T16:02:19;97338.44;;;12.28;85.45
70254;BME280;57649;42.968;1.608;2023-03-31T16:04:48;97324.66;;;12.31;82.88
70254;BME280;57649;42.968;1.608;2023-03-31T16:07:23;97317.78;;;12.29;82.92
70254;BME280;57649;42.968;1.608;2023-03-31T16:12:26;97335.09;;;12.26;81.73
70254;BME280;57649;42.968;1.608;2023-03-31T16:15:16;97330.50;;;12.35;82.05
70254;BME280;57649;42.968;1.608;2023-03-31T16:17:57;97338.06;;;12.31;82.82
70254;BME280;57649;42.968;1.608;2023-03-31T16:20:40;97339.34;;;12.21;82.46
70254;BME280;57649;42.968;1.608;2023-03-31T16:23:18;97342.91;;;12.13;81.13
70254;BME280;57649;42.968;1.608;2023-03-31T16:25:45;97332.97;;;12.22;79.85
70254;BME280;57649;42.968;1.608;2023-03-31T16:28:23;97343.56;;;12.38;79.23
70254;BME280;57649;42.968;1.608;2023-03-31T16:30:50;97341.72;;;12.39;79.29
70254;BME280;57649;42.968;1.608;2023-03-31T16:33:18;97347.06;;;12.39;77.56